sensor_id;sensor_type;location;lat;lon;timestamp;pressure;altitude;pressure_sealevel;temperature
49154;BMP280;49455;52.252;9.124;2023-07-09T00:02:10;99974.72;;;25.24
49154;BMP280;49455;52.252;9.124;2023-07-09T00:07:22;99979.03;;;25.09
49154;BMP280;49455;52.252;9.124;2023-07-09T00:12:24;99970.47;;;25.18
49154;BMP280;49455;52.252;9.124;2023-07-09T00:17:31;99978.03;;;25.17
49154;BMP280;49455;52.252;9.124;2023-07-09T00:22:31;99978.72;;;25.29
49154;BMP280;49455;52.252;9.124;2023-07-09T00:27:32;99969.41;;;25.32
49154;BMP280;49455;52.252;9.124;2023-07-09T00:32:32;99969.69;;;25.12
49154;BMP280;49455;52.252;9.124;2023-07-09T00:37:32;99973.50;;;24.97
49154;BMP280;49455;52.252;9.124;2023-07-09T00:42:33;99973.50;;;25.09
49154;BMP280;49455;52.252;9.124;2023-07-09T00:52:51;99968.16;;;25.16
49154;BMP280;49455;52.252;9.124;2023-07-09T00:58:01;99969.97;;;25.14
49154;BMP280;49455;52.252;9.124;2023-07-09T01:03:04;99968.44;;;25.01
49154;BMP280;49455;52.252;9.124;2023-07-09T01:08:05;99959.88;;;25.05
49154;BMP280;49455;52.252;9.124;2023-07-09T01:13:06;99968.97;;;24.94
49154;BMP280;49455;52.252;9.124;2023-07-09T01:18:06;99972.53;;;24.89
49154;BMP280;49455;52.252;9.124;2023-07-09T01:23:07;99968.72;;;24.92
49154;BMP280;49455;52.252;9.124;2023-07-09T01:28:08;99966.00;;;24.76
49154;BMP280;49455;52.252;9.124;2023-07-09T01:33:08;99960.69;;;24.78
49154;BMP280;49455;52.252;9.124;2023-07-09T01:38:09;99962.22;;;24.67
49154;BMP280;49455;52.252;9.124;2023-07-09T01:43:09;99970.53;;;24.67
49154;BMP280;49455;52.252;9.124;2023-07-09T01:48:10;99956.16;;;24.63
49154;BMP280;49455;52.252;9.124;2023-07-09T01:53:12;99966.50;;;24.57
49154;BMP280;49455;52.252;9.124;2023-07-09T01:58:15;99963.97;;;24.42
49154;BMP280;49455;52.252;9.124;2023-07-09T02:03:15;99957.94;;;24.38
49154;BMP280;49455;52.252;9.124;2023-07-09T02:08:16;99955.16;;;24.38
49154;BMP280;49455;52.252;9.124;2023-07-09T02:13:17;99958.69;;;24.39
49154;BMP280;49455;52.252;9.124;2023-07-09T02:18:19;99953.16;;;24.39
49154;BMP280;49455;52.252;9.124;2023-07-09T02:23:19;99951.66;;;24.32
49154;BMP280;49455;52.252;9.124;2023-07-09T02:28:20;99956.16;;;24.35
49154;BMP280;49455;52.252;9.124;2023-07-09T02:33:20;99962.22;;;24.39
49154;BMP280;49455;52.252;9.124;2023-07-09T02:38:21;99953.38;;;24.35
49154;BMP280;49455;52.252;9.124;2023-07-09T02:43:21;99946.63;;;24.47
49154;BMP280;49455;52.252;9.124;2023-07-09T02:48:21;99953.16;;;24.39
49154;BMP280;49455;52.252;9.124;2023-07-09T02:53:22;99956.66;;;24.34
49154;BMP280;49455;52.252;9.124;2023-07-09T02:58:23;99944.09;;;24.38
49154;BMP280;49455;52.252;9.124;2023-07-09T03:03:23;99942.59;;;24.37
49154;BMP280;49455;52.252;9.124;2023-07-09T03:08:24;99957.94;;;24.38
49154;BMP280;49455;52.252;9.124;2023-07-09T03:13:24;99950.91;;;24.43
49154;BMP280;49455;52.252;9.124;2023-07-09T03:18:24;99959.69;;;24.41
49154;BMP280;49455;52.252;9.124;2023-07-09T03:23:25;99958.94;;;24.35
49154;BMP280;49455;52.252;9.124;2023-07-09T03:28:26;99957.19;;;24.43
49154;BMP280;49455;52.252;9.124;2023-07-09T03:33:26;99961.97;;;24.43
49154;BMP280;49455;52.252;9.124;2023-07-09T03:38:27;99970.28;;;24.43
49154;BMP280;49455;52.252;9.124;2023-07-09T03:43:27;99954.41;;;24.43
49154;BMP280;49455;52.252;9.124;2023-07-09T03:48:28;99962.97;;;24.57
49154;BMP280;49455;52.252;9.124;2023-07-09T03:53:28;99963.97;;;24.59
49154;BMP280;49455;52.252;9.124;2023-07-09T03:58:28;99956.41;;;24.60
49154;BMP280;49455;52.252;9.124;2023-07-09T04:03:29;99961.69;;;24.63
49154;BMP280;49455;52.252;9.124;2023-07-09T04:08:29;99961.94;;;24.60
49154;BMP280;49455;52.252;9.124;2023-07-09T04:13:30;99957.44;;;24.57
49154;BMP280;49455;52.252;9.124;2023-07-09T04:18:30;99967.25;;;24.58
49154;BMP280;49455;52.252;9.124;2023-07-09T04:23:30;99963.72;;;24.74
49154;BMP280;49455;52.252;9.124;2023-07-09T04:28:31;99967.50;;;24.60
49154;BMP280;49455;52.252;9.124;2023-07-09T04:33:31;99957.66;;;24.53
49154;BMP280;49455;52.252;9.124;2023-07-09T04:38:31;99968.50;;;24.45
49154;BMP280;49455;52.252;9.124;2023-07-09T04:43:32;99974.06;;;24.51
49154;BMP280;49455;52.252;9.124;2023-07-09T04:48:32;99971.78;;;24.55
49154;BMP280;49455;52.252;9.124;2023-07-09T04:53:32;99971.03;;;24.60
49154;BMP280;49455;52.252;9.124;2023-07-09T04:58:33;99972.78;;;24.63
49154;BMP280;49455;52.252;9.124;2023-07-09T05:03:34;99970.53;;;24.67
49154;BMP280;49455;52.252;9.124;2023-07-09T05:08:34;99968.50;;;24.73
49154;BMP280;49455;52.252;9.124;2023-07-09T05:13:35;99973.06;;;24.82
49154;BMP280;49455;52.252;9.124;2023-07-09T05:18:36;99969.78;;;24.78
49154;BMP280;49455;52.252;9.124;2023-07-09T05:23:36;99967.47;;;24.88
49154;BMP280;49455;52.252;9.124;2023-07-09T05:28:37;99966.97;;;24.89
49154;BMP280;49455;52.252;9.124;2023-07-09T05:33:37;99970.50;;;25.01
49154;BMP280;49455;52.252;9.124;2023-07-09T05:38:38;99978.81;;;25.07
49154;BMP280;49455;52.252;9.124;2023-07-09T05:43:38;99962.41;;;25.09
49154;BMP280;49455;52.252;9.124;2023-07-09T05:48:39;99965.41;;;25.16
49154;BMP280;49455;52.252;9.124;2023-07-09T05:53:39;99965.88;;;25.26
49154;BMP280;49455;52.252;9.124;2023-07-09T05:58:40;99963.31;;;25.34
49154;BMP280;49455;52.252;9.124;2023-07-09T06:03:40;99979.72;;;25.37
49154;BMP280;49455;52.252;9.124;2023-07-09T06:08:41;99980.66;;;25.51
49154;BMP280;49455;52.252;9.124;2023-07-09T06:13:41;99980.63;;;25.62
49154;BMP280;49455;52.252;9.124;2023-07-09T06:18:41;99984.06;;;25.79
49154;BMP280;49455;52.252;9.124;2023-07-09T06:23:42;99983.50;;;25.92
49154;BMP280;49455;52.252;9.124;2023-07-09T06:28:42;99981.22;;;25.96
49154;BMP280;49455;52.252;9.124;2023-07-09T06:33:43;99985.16;;;26.06
49154;BMP280;49455;52.252;9.124;2023-07-09T06:38:43;99983.34;;;26.15
49154;BMP280;49455;52.252;9.124;2023-07-09T06:43:44;99993.63;;;26.25
49154;BMP280;49455;52.252;9.124;2023-07-09T06:48:44;99995.28;;;26.40
49154;BMP280;49455;52.252;9.124;2023-07-09T06:53:45;99998.03;;;26.45
49154;BMP280;49455;52.252;9.124;2023-07-09T06:58:45;99993.69;;;26.50
49154;BMP280;49455;52.252;9.124;2023-07-09T07:03:46;100000.66;;;26.62
49154;BMP280;49455;52.252;9.124;2023-07-09T07:08:46;99996.31;;;26.67
49154;BMP280;49455;52.252;9.124;2023-07-09T07:13:46;99988.59;;;26.84
49154;BMP280;49455;52.252;9.124;2023-07-09T07:18:47;99989.22;;;26.96
49154;BMP280;49455;52.252;9.124;2023-07-09T07:23:47;99990.31;;;27.11
49154;BMP280;49455;52.252;9.124;2023-07-09T07:28:48;99991.31;;;27.33
49154;BMP280;49455;52.252;9.124;2023-07-09T07:33:48;99985.91;;;27.40
49154;BMP280;49455;52.252;9.124;2023-07-09T07:38:49;99993.81;;;27.55
49154;BMP280;49455;52.252;9.124;2023-07-09T07:43:49;99995.09;;;27.73
49154;BMP280;49455;52.252;9.124;2023-07-09T07:48:49;100005.34;;;27.65
49154;BMP280;49455;52.252;9.124;2023-07-09T07:53:50;100011.13;;;27.86
49154;BMP280;49455;52.252;9.124;2023-07-09T07:58:50;100011.47;;;28.14
49154;BMP280;49455;52.252;9.124;2023-07-09T08:03:50;100015.41;;;28.38
49154;BMP280;49455;52.252;9.124;2023-07-09T08:08:51;100005.72;;;28.71
49154;BMP280;49455;52.252;9.124;2023-07-09T08:13:51;100008.94;;;28.88
49154;BMP280;49455;52.252;9.124;2023-07-09T08:18:52;100004.53;;;29.06
49154;BMP280;49455;52.252;9.124;2023-07-09T08:23:52;100004.19;;;29.23
49154;BMP280;49455;52.252;9.124;2023-07-09T08:28:53;100005.00;;;29.44
49154;BMP280;49455;52.252;9.124;2023-07-09T08:33:53;100003.34;;;29.75
49154;BMP280;49455;52.252;9.124;2023-07-09T08:38:54;99997.41;;;29.79
49154;BMP280;49455;52.252;9.124;2023-07-09T08:49:37;100000.69;;;29.90
49154;BMP280;49455;52.252;9.124;2023-07-09T08:54:38;99997.06;;;29.82
49154;BMP280;49455;52.252;9.124;2023-07-09T08:59:40;100003.94;;;30.23
49154;BMP280;49455;52.252;9.124;2023-07-09T09:04:41;100014.22;;;30.49
49154;BMP280;49455;52.252;9.124;2023-07-09T09:09:56;100009.19;;;30.76
49154;BMP280;49455;52.252;9.124;2023-07-09T09:14:59;100009.78;;;30.82
49154;BMP280;49455;52.252;9.124;2023-07-09T09:20:05;100003.75;;;31.06
49154;BMP280;49455;52.252;9.124;2023-07-09T09:25:28;100007.41;;;31.37
49154;BMP280;49455;52.252;9.124;2023-07-09T09:30:30;100009.50;;;31.52
49154;BMP280;49455;52.252;9.124;2023-07-09T09:35:35;100006.50;;;31.50
49154;BMP280;49455;52.252;9.124;2023-07-09T09:40:36;100013.84;;;31.68
49154;BMP280;49455;52.252;9.124;2023-07-09T09:45:38;100017.94;;;31.60
49154;BMP280;49455;52.252;9.124;2023-07-09T09:50:40;100023.53;;;31.83
49154;BMP280;49455;52.252;9.124;2023-07-09T09:55:41;100016.47;;;32.20
49154;BMP280;49455;52.252;9.124;2023-07-09T10:00:48;100015.75;;;32.19
49154;BMP280;49455;52.252;9.124;2023-07-09T10:05:52;100015.75;;;32.04
49154;BMP280;49455;52.252;9.124;2023-07-09T10:11:01;100023.41;;;32.19
49154;BMP280;49455;52.252;9.124;2023-07-09T10:16:30;100015.94;;;32.44
49154;BMP280;49455;52.252;9.124;2023-07-09T10:21:45;100017.22;;;33.06
49154;BMP280;49455;52.252;9.124;2023-07-09T10:26:50;100017.97;;;32.21
49154;BMP280;49455;52.252;9.124;2023-07-09T10:38:07;100016.19;;;32.86
49154;BMP280;49455;52.252;9.124;2023-07-09T10:43:21;100015.56;;;33.03
49154;BMP280;49455;52.252;9.124;2023-07-09T10:48:31;100012.25;;;33.22
49154;BMP280;49455;52.252;9.124;2023-07-09T10:53:37;100015.28;;;33.49
49154;BMP280;49455;52.252;9.124;2023-07-09T11:04:21;100005.09;;;33.86
49154;BMP280;49455;52.252;9.124;2023-07-09T11:09:31;100007.47;;;33.72
49154;BMP280;49455;52.252;9.124;2023-07-09T11:14:41;100007.47;;;33.72
49154;BMP280;49455;52.252;9.124;2023-07-09T11:19:44;100001.50;;;33.93
49154;BMP280;49455;52.252;9.124;2023-07-09T11:24:49;99989.97;;;34.24
49154;BMP280;49455;52.252;9.124;2023-07-09T11:29:59;99991.63;;;34.44
49154;BMP280;49455;52.252;9.124;2023-07-09T11:35:07;99984.66;;;34.45
49154;BMP280;49455;52.252;9.124;2023-07-09T11:40:12;99973.28;;;33.84
49154;BMP280;49455;52.252;9.124;2023-07-09T11:45:15;99971.81;;;34.52
49154;BMP280;49455;52.252;9.124;2023-07-09T11:50:27;99977.03;;;34.99
49154;BMP280;49455;52.252;9.124;2023-07-09T11:55:33;99994.94;;;35.21
49154;BMP280;49455;52.252;9.124;2023-07-09T12:00:47;99988.19;;;35.34
49154;BMP280;49455;52.252;9.124;2023-07-09T12:05:57;99977.59;;;35.52
49154;BMP280;49455;52.252;9.124;2023-07-09T12:10:59;99966.91;;;35.60
49154;BMP280;49455;52.252;9.124;2023-07-09T12:16:00;99972.41;;;35.21
49154;BMP280;49455;52.252;9.124;2023-07-09T12:21:00;99965.88;;;35.55
49154;BMP280;49455;52.252;9.124;2023-07-09T12:26:02;99968.03;;;35.38
49154;BMP280;49455;52.252;9.124;2023-07-09T12:31:03;99966.13;;;35.40
49154;BMP280;49455;52.252;9.124;2023-07-09T12:36:06;99957.66;;;36.06
49154;BMP280;49455;52.252;9.124;2023-07-09T12:41:27;99941.00;;;35.81
49154;BMP280;49455;52.252;9.124;2023-07-09T12:46:28;99940.41;;;35.73
49154;BMP280;49455;52.252;9.124;2023-07-09T12:51:29;99941.94;;;36.12
49154;BMP280;49455;52.252;9.124;2023-07-09T12:56:33;99921.91;;;35.43
49154;BMP280;49455;52.252;9.124;2023-07-09T13:01:35;99905.25;;;35.18
49154;BMP280;49455;52.252;9.124;2023-07-09T13:06:36;99911.03;;;36.05
49154;BMP280;49455;52.252;9.124;2023-07-09T13:11:36;99903.75;;;36.21
49154;BMP280;49455;52.252;9.124;2023-07-09T13:16:40;99898.53;;;35.79
49154;BMP280;49455;52.252;9.124;2023-07-09T13:21:41;99893.50;;;35.97
49154;BMP280;49455;52.252;9.124;2023-07-09T13:26:41;99890.25;;;36.10
49154;BMP280;49455;52.252;9.124;2023-07-09T13:31:42;99888.16;;;36.20
49154;BMP280;49455;52.252;9.124;2023-07-09T13:36:42;99872.72;;;36.21
49154;BMP280;49455;52.252;9.124;2023-07-09T13:41:48;99872.75;;;35.92
49154;BMP280;49455;52.252;9.124;2023-07-09T13:46:49;99868.84;;;36.16
49154;BMP280;49455;52.252;9.124;2023-07-09T13:51:51;99861.69;;;36.35
49154;BMP280;49455;52.252;9.124;2023-07-09T13:56:52;99867.34;;;36.35
49154;BMP280;49455;52.252;9.124;2023-07-09T14:01:55;99865.69;;;36.41
49154;BMP280;49455;52.252;9.124;2023-07-09T14:06:57;99860.50;;;36.78
49154;BMP280;49455;52.252;9.124;2023-07-09T14:11:57;99863.22;;;37.29
49154;BMP280;49455;52.252;9.124;2023-07-09T14:16:58;99859.97;;;37.44
49154;BMP280;49455;52.252;9.124;2023-07-09T14:21:58;99862.50;;;36.97
49154;BMP280;49455;52.252;9.124;2023-07-09T14:26:59;99854.38;;;37.13
49154;BMP280;49455;52.252;9.124;2023-07-09T14:31:59;99857.84;;;37.33
49154;BMP280;49455;52.252;9.124;2023-07-09T14:37:00;99845.84;;;37.44
49154;BMP280;49455;52.252;9.124;2023-07-09T14:42:01;99838.09;;;36.71
49154;BMP280;49455;52.252;9.124;2023-07-09T14:47:15;99838.44;;;37.18
49154;BMP280;49455;52.252;9.124;2023-07-09T14:52:19;99829.88;;;36.54
49154;BMP280;49455;52.252;9.124;2023-07-09T14:57:22;99828.00;;;37.20
49154;BMP280;49455;52.252;9.124;2023-07-09T15:02:35;99815.56;;;37.13
49154;BMP280;49455;52.252;9.124;2023-07-09T15:07:36;99808.44;;;36.91
49154;BMP280;49455;52.252;9.124;2023-07-09T15:12:36;99793.38;;;36.67
49154;BMP280;49455;52.252;9.124;2023-07-09T15:17:37;99799.78;;;36.27
49154;BMP280;49455;52.252;9.124;2023-07-09T15:22:37;99805.63;;;35.90
49154;BMP280;49455;52.252;9.124;2023-07-09T15:27:37;99799.59;;;36.35
49154;BMP280;49455;52.252;9.124;2023-07-09T15:32:38;99801.47;;;35.72
49154;BMP280;49455;52.252;9.124;2023-07-09T15:37:38;99798.81;;;35.84
49154;BMP280;49455;52.252;9.124;2023-07-09T15:42:39;99796.84;;;35.28
49154;BMP280;49455;52.252;9.124;2023-07-09T15:47:39;99793.69;;;34.95
49154;BMP280;49455;52.252;9.124;2023-07-09T15:52:40;99794.94;;;34.75
49154;BMP280;49455;52.252;9.124;2023-07-09T15:57:40;99789.47;;;34.77
49154;BMP280;49455;52.252;9.124;2023-07-09T16:02:40;99801.16;;;34.47
49154;BMP280;49455;52.252;9.124;2023-07-09T16:07:41;99805.06;;;34.24
49154;BMP280;49455;52.252;9.124;2023-07-09T16:12:42;99804.66;;;34.11
49154;BMP280;49455;52.252;9.124;2023-07-09T16:17:43;99792.81;;;34.12
49154;BMP280;49455;52.252;9.124;2023-07-09T16:22:47;99788.06;;;33.70
49154;BMP280;49455;52.252;9.124;2023-07-09T16:27:49;99790.09;;;33.35
49154;BMP280;49455;52.252;9.124;2023-07-09T16:32:50;99802.44;;;33.15
49154;BMP280;49455;52.252;9.124;2023-07-09T16:37:50;99807.31;;;33.14
49154;BMP280;49455;52.252;9.124;2023-07-09T16:42:52;99808.56;;;32.71
49154;BMP280;49455;52.252;9.124;2023-07-09T16:47:53;99805.31;;;32.50
49154;BMP280;49455;52.252;9.124;2023-07-09T16:52:53;99786.78;;;32.07
49154;BMP280;49455;52.252;9.124;2023-07-09T16:57:56;99787.81;;;31.79
49154;BMP280;49455;52.252;9.124;2023-07-09T17:02:58;99777.97;;;31.55
49154;BMP280;49455;52.252;9.124;2023-07-09T17:07:58;99777.38;;;31.26
49154;BMP280;49455;52.252;9.124;2023-07-09T17:13:00;99761.91;;;31.09
49154;BMP280;49455;52.252;9.124;2023-07-09T17:18:01;99760.78;;;30.90
49154;BMP280;49455;52.252;9.124;2023-07-09T17:23:01;99758.50;;;30.65
49154;BMP280;49455;52.252;9.124;2023-07-09T17:28:19;99751.94;;;30.47
49154;BMP280;49455;52.252;9.124;2023-07-09T17:33:20;99743.09;;;30.28
49154;BMP280;49455;52.252;9.124;2023-07-09T17:38:34;99743.78;;;30.13
49154;BMP280;49455;52.252;9.124;2023-07-09T17:43:35;99766.97;;;29.93
49154;BMP280;49455;52.252;9.124;2023-07-09T17:48:35;99774.00;;;29.86
49154;BMP280;49455;52.252;9.124;2023-07-09T17:53:36;99770.91;;;29.77
49154;BMP280;49455;52.252;9.124;2023-07-09T17:58:37;99760.84;;;29.74
49154;BMP280;49455;52.252;9.124;2023-07-09T18:03:38;99857.00;;;29.78
49154;BMP280;49455;52.252;9.124;2023-07-09T18:08:39;99880.63;;;28.88
49154;BMP280;49455;52.252;9.124;2023-07-09T18:13:39;99906.47;;;28.22
49154;BMP280;49455;52.252;9.124;2023-07-09T18:18:40;99917.59;;;27.77
49154;BMP280;49455;52.252;9.124;2023-07-09T18:23:40;99934.09;;;27.18
49154;BMP280;49455;52.252;9.124;2023-07-09T18:28:44;100003.34;;;26.07
49154;BMP280;49455;52.252;9.124;2023-07-09T18:33:44;100052.63;;;24.59
49154;BMP280;49455;52.252;9.124;2023-07-09T18:38:45;100083.63;;;23.81
49154;BMP280;49455;52.252;9.124;2023-07-09T18:43:46;100059.94;;;23.75
49154;BMP280;49455;52.252;9.124;2023-07-09T18:48:47;100067.97;;;23.35
49154;BMP280;49455;52.252;9.124;2023-07-09T18:53:47;100026.84;;;23.49
49154;BMP280;49455;52.252;9.124;2023-07-09T18:58:48;100025.19;;;23.25
49154;BMP280;49455;52.252;9.124;2023-07-09T19:03:48;100014.50;;;23.07
49154;BMP280;49455;52.252;9.124;2023-07-09T19:08:49;100007.72;;;23.08
49154;BMP280;49455;52.252;9.124;2023-07-09T19:13:49;100000.34;;;22.94
49154;BMP280;49455;52.252;9.124;2023-07-09T19:18:49;100015.19;;;22.70
49154;BMP280;49455;52.252;9.124;2023-07-09T19:23:50;99997.00;;;22.58
49154;BMP280;49455;52.252;9.124;2023-07-09T19:28:50;100004.34;;;22.41
49154;BMP280;49455;52.252;9.124;2023-07-09T19:33:51;99963.75;;;22.73
49154;BMP280;49455;52.252;9.124;2023-07-09T19:38:52;99917.50;;;22.68
49154;BMP280;49455;52.252;9.124;2023-07-09T19:43:53;99897.31;;;22.50
49154;BMP280;49455;52.252;9.124;2023-07-09T19:48:55;99887.66;;;22.40
49154;BMP280;49455;52.252;9.124;2023-07-09T19:53:55;99879.56;;;22.05
49154;BMP280;49455;52.252;9.124;2023-07-09T19:58:55;99863.19;;;22.22
49154;BMP280;49455;52.252;9.124;2023-07-09T20:03:56;99859.94;;;21.97
49154;BMP280;49455;52.252;9.124;2023-07-09T20:08:56;99846.00;;;22.06
49154;BMP280;49455;52.252;9.124;2023-07-09T20:13:57;99852.94;;;22.28
49154;BMP280;49455;52.252;9.124;2023-07-09T20:18:57;99846.16;;;21.97
49154;BMP280;49455;52.252;9.124;2023-07-09T20:23:58;99863.19;;;21.96
49154;BMP280;49455;52.252;9.124;2023-07-09T20:28:58;99870.81;;;21.60
49154;BMP280;49455;52.252;9.124;2023-07-09T20:34:08;99875.31;;;21.57
49154;BMP280;49455;52.252;9.124;2023-07-09T20:39:15;99895.06;;;21.76
49154;BMP280;49455;52.252;9.124;2023-07-09T20:44:21;99900.81;;;21.73
49154;BMP280;49455;52.252;9.124;2023-07-09T20:49:32;99905.31;;;21.96
49154;BMP280;49455;52.252;9.124;2023-07-09T20:54:33;99916.34;;;21.96
49154;BMP280;49455;52.252;9.124;2023-07-09T20:59:34;99903.50;;;21.67
49154;BMP280;49455;52.252;9.124;2023-07-09T21:04:34;99910.66;;;21.59
49154;BMP280;49455;52.252;9.124;2023-07-09T21:09:34;99921.41;;;21.57
49154;BMP280;49455;52.252;9.124;2023-07-09T21:14:35;99926.66;;;21.55
49154;BMP280;49455;52.252;9.124;2023-07-09T21:19:36;99910.88;;;21.35
49154;BMP280;49455;52.252;9.124;2023-07-09T21:24:38;99911.75;;;21.26
49154;BMP280;49455;52.252;9.124;2023-07-09T21:29:39;99919.19;;;21.41
49154;BMP280;49455;52.252;9.124;2023-07-09T21:34:39;99920.84;;;21.32
49154;BMP280;49455;52.252;9.124;2023-07-09T21:39:39;99919.81;;;21.30
49154;BMP280;49455;52.252;9.124;2023-07-09T21:44:40;99917.81;;;21.30
49154;BMP280;49455;52.252;9.124;2023-07-09T21:49:42;99912.97;;;21.25
49154;BMP280;49455;52.252;9.124;2023-07-09T21:54:43;99901.59;;;21.18
49154;BMP280;49455;52.252;9.124;2023-07-09T21:59:44;99903.19;;;21.24
49154;BMP280;49455;52.252;9.124;2023-07-09T22:04:45;99903.31;;;21.15
49154;BMP280;49455;52.252;9.124;2023-07-09T22:09:46;99896.97;;;21.09
49154;BMP280;49455;52.252;9.124;2023-07-09T22:14:48;99887.16;;;20.88
49154;BMP280;49455;52.252;9.124;2023-07-09T22:19:49;99886.19;;;20.91
49154;BMP280;49455;52.252;9.124;2023-07-09T22:24:49;99892.81;;;20.99
49154;BMP280;49455;52.252;9.124;2023-07-09T22:29:50;99890.66;;;20.88
49154;BMP280;49455;52.252;9.124;2023-07-09T22:34:51;99879.50;;;20.77
49154;BMP280;49455;52.252;9.124;2023-07-09T22:39:52;99864.81;;;20.86
49154;BMP280;49455;52.252;9.124;2023-07-09T22:44:53;99868.63;;;20.73
49154;BMP280;49455;52.252;9.124;2023-07-09T22:49:53;99871.69;;;20.75
49154;BMP280;49455;52.252;9.124;2023-07-09T22:54:56;99870.38;;;20.71
49154;BMP280;49455;52.252;9.124;2023-07-09T22:59:56;99857.47;;;20.62
49154;BMP280;49455;52.252;9.124;2023-07-09T23:04:57;99857.31;;;20.51
49154;BMP280;49455;52.252;9.124;2023-07-09T23:09:57;99859.56;;;20.52
49154;BMP280;49455;52.252;9.124;2023-07-09T23:14:57;99865.56;;;20.51
49154;BMP280;49455;52.252;9.124;2023-07-09T23:19:58;99857.56;;;20.53
49154;BMP280;49455;52.252;9.124;2023-07-09T23:24:58;99859.00;;;20.48
49154;BMP280;49455;52.252;9.124;2023-07-09T23:29:58;99842.22;;;20.46
49154;BMP280;49455;52.252;9.124;2023-07-09T23:34:59;99841.25;;;20.49
49154;BMP280;49455;52.252;9.124;2023-07-09T23:39:59;99833.56;;;20.53
49154;BMP280;49455;52.252;9.124;2023-07-09T23:45:00;99820.16;;;20.61
49154;BMP280;49455;52.252;9.124;2023-07-09T23:50:00;99821.69;;;20.62
49154;BMP280;49455;52.252;9.124;2023-07-09T23:55:00;99822.91;;;20.61
